Pagrindinis puslapis
METAR-TAF:

METAR-TAF

Oro uostai :

Puerto Viljamsas, Čilė

platuma: 54-56-00S, ilguma: 067-37-00W, Aukštis: 27 m

Dabartinis oras

Ataskaita buvo paskelbta 37 minutes, ne 22:00 UTC
Vėjas 15 kt iš Vakarų su gūsio iki 25 kt
Temperatūra 6°C
Drėgmė 81%
Slėgis 1009 hPa
Matomumas 10 km arba daugiau
Mažai debesys ne aukštis 1500 ft
Išsisklaidę debesys ne aukštis 2500 ft
Su prošvaistėmis ne aukštis 3600 ft
lietus

METAR: SCGZ 252200Z 26015G25KT 9999 -SHRA FEW015 SCT025 BKN036 06/03 Q1009

Laikas: 19:37 (22:37 UTC)


TAF: trūkstamas

Orai ataskaitas ir orų prognozės (METAR, TAF).

turimą stotys yra geltonos ir raudonos taškus žemėlapyje.

Perkelti pele per norėdami pamatyti stoties vardą.

Tada spustelėkite, norėdami matyti oro stebėjimo ir prognozės.

Norėdami pakeisti žemėlapį: spustelėkite ant žalios mygtukų su juodo kryžiaus žemyn,; žalią mygtuką su brūkšneliu, jei norite nutolinti; arba žalių rodyklių gretimoms žemėlapius.


METAR-TAF: